sensor_id;sensor_type;location;lat;lon;timestamp;temperature;humidity
63202;DHT22;49296;48.188;11.566;2022-10-31T00:00:16;15.19;71.79
63202;DHT22;49296;48.188;11.566;2022-10-31T00:02:44;15.22;71.82
63202;DHT22;49296;48.188;11.566;2022-10-31T00:05:11;15.25;71.86
63202;DHT22;49296;48.188;11.566;2022-10-31T00:07:37;15.28;71.92
63202;DHT22;49296;48.188;11.566;2022-10-31T00:10:05;15.34;71.81
63202;DHT22;49296;48.188;11.566;2022-10-31T00:12:31;15.36;71.63
63202;DHT22;49296;48.188;11.566;2022-10-31T00:14:58;15.39;71.45
63202;DHT22;49296;48.188;11.566;2022-10-31T00:17:24;15.39;71.42
63202;DHT22;49296;48.188;11.566;2022-10-31T00:19:52;15.42;71.17
63202;DHT22;49296;48.188;11.566;2022-10-31T00:22:19;15.45;71.21
63202;DHT22;49296;48.188;11.566;2022-10-31T00:24:45;15.35;71.27
63202;DHT22;49296;48.188;11.566;2022-10-31T00:27:12;15.39;71.41
63202;DHT22;49296;48.188;11.566;2022-10-31T00:29:38;15.42;71.26
63202;DHT22;49296;48.188;11.566;2022-10-31T00:32:05;15.35;71.21
63202;DHT22;49296;48.188;11.566;2022-10-31T00:34:31;15.32;71.31
63202;DHT22;49296;48.188;11.566;2022-10-31T00:36:59;15.35;71.12
63202;DHT22;49296;48.188;11.566;2022-10-31T00:39:26;15.31;71.11
63202;DHT22;49296;48.188;11.566;2022-10-31T00:41:53;15.29;71.40
63202;DHT22;49296;48.188;11.566;2022-10-31T00:44:19;15.25;71.54
63202;DHT22;49296;48.188;11.566;2022-10-31T00:46:46;15.28;71.57
63202;DHT22;49296;48.188;11.566;2022-10-31T00:49:12;15.25;71.79
63202;DHT22;49296;48.188;11.566;2022-10-31T00:51:39;15.27;71.76
63202;DHT22;49296;48.188;11.566;2022-10-31T00:54:07;15.19;71.98
63202;DHT22;49296;48.188;11.566;2022-10-31T00:56:33;15.21;71.54
63202;DHT22;49296;48.188;11.566;2022-10-31T00:59:00;15.24;71.22
63202;DHT22;49296;48.188;11.566;2022-10-31T01:01:26;15.24;71.36
63202;DHT22;49296;48.188;11.566;2022-10-31T01:03:53;15.24;71.62
63202;DHT22;49296;48.188;11.566;2022-10-31T01:06:20;15.32;71.31
63202;DHT22;49296;48.188;11.566;2022-10-31T01:08:46;15.31;71.26
63202;DHT22;49296;48.188;11.566;2022-10-31T01:11:16;15.35;70.98
63202;DHT22;49296;48.188;11.566;2022-10-31T01:13:43;15.35;70.74
63202;DHT22;49296;48.188;11.566;2022-10-31T01:16:10;15.29;70.79
63202;DHT22;49296;48.188;11.566;2022-10-31T01:18:37;15.25;70.86
63202;DHT22;49296;48.188;11.566;2022-10-31T01:21:05;15.21;70.59
63202;DHT22;49296;48.188;11.566;2022-10-31T01:23:32;15.19;70.36
63202;DHT22;49296;48.188;11.566;2022-10-31T01:26:03;15.15;70.50
63202;DHT22;49296;48.188;11.566;2022-10-31T01:28:31;15.12;70.77
63202;DHT22;49296;48.188;11.566;2022-10-31T01:31:00;15.08;70.97
63202;DHT22;49296;48.188;11.566;2022-10-31T01:33:28;15.02;71.20
63202;DHT22;49296;48.188;11.566;2022-10-31T01:35:54;15.01;71.11
63202;DHT22;49296;48.188;11.566;2022-10-31T01:38:21;14.85;71.53
63202;DHT22;49296;48.188;11.566;2022-10-31T01:40:48;14.70;72.22
63202;DHT22;49296;48.188;11.566;2022-10-31T01:43:15;14.83;71.62
63202;DHT22;49296;48.188;11.566;2022-10-31T01:45:43;14.81;71.53
63202;DHT22;49296;48.188;11.566;2022-10-31T01:48:12;14.79;71.60
63202;DHT22;49296;48.188;11.566;2022-10-31T01:50:39;14.84;71.46
63202;DHT22;49296;48.188;11.566;2022-10-31T01:53:06;14.77;71.49
63202;DHT22;49296;48.188;11.566;2022-10-31T01:55:34;14.87;71.10
63202;DHT22;49296;48.188;11.566;2022-10-31T01:58:02;14.88;70.98
63202;DHT22;49296;48.188;11.566;2022-10-31T02:00:30;14.88;71.14
63202;DHT22;49296;48.188;11.566;2022-10-31T02:02:58;14.88;71.35
63202;DHT22;49296;48.188;11.566;2022-10-31T02:05:25;14.90;71.45
63202;DHT22;49296;48.188;11.566;2022-10-31T02:07:55;14.88;71.60
63202;DHT22;49296;48.188;11.566;2022-10-31T02:10:23;14.87;71.64
63202;DHT22;49296;48.188;11.566;2022-10-31T02:12:50;14.85;71.65
63202;DHT22;49296;48.188;11.566;2022-10-31T02:15:17;14.87;71.52
63202;DHT22;49296;48.188;11.566;2022-10-31T02:17:44;14.93;71.19
63202;DHT22;49296;48.188;11.566;2022-10-31T02:20:16;14.84;71.26
63202;DHT22;49296;48.188;11.566;2022-10-31T02:22:51;14.80;71.53
63202;DHT22;49296;48.188;11.566;2022-10-31T02:25:22;14.83;71.39
63202;DHT22;49296;48.188;11.566;2022-10-31T02:27:55;14.73;71.87
63202;DHT22;49296;48.188;11.566;2022-10-31T02:30:27;14.76;71.76
63202;DHT22;49296;48.188;11.566;2022-10-31T02:33:04;14.70;71.99
63202;DHT22;49296;48.188;11.566;2022-10-31T02:35:37;14.76;71.85
63202;DHT22;49296;48.188;11.566;2022-10-31T02:38:08;14.79;71.75
63202;DHT22;49296;48.188;11.566;2022-10-31T02:40:39;14.77;71.88
63202;DHT22;49296;48.188;11.566;2022-10-31T02:43:09;14.77;71.97
63202;DHT22;49296;48.188;11.566;2022-10-31T02:45:40;14.69;72.09
63202;DHT22;49296;48.188;11.566;2022-10-31T02:48:10;14.70;72.09
63202;DHT22;49296;48.188;11.566;2022-10-31T02:50:39;14.62;72.43
63202;DHT22;49296;48.188;11.566;2022-10-31T02:53:06;14.42;73.02
63202;DHT22;49296;48.188;11.566;2022-10-31T02:55:42;14.28;73.39
63202;DHT22;49296;48.188;11.566;2022-10-31T02:58:11;14.26;73.52
63202;DHT22;49296;48.188;11.566;2022-10-31T03:00:40;14.46;73.10
63202;DHT22;49296;48.188;11.566;2022-10-31T03:03:13;14.36;72.90
63202;DHT22;49296;48.188;11.566;2022-10-31T03:05:45;14.43;72.72
63202;DHT22;49296;48.188;11.566;2022-10-31T03:08:15;14.48;72.52
63202;DHT22;49296;48.188;11.566;2022-10-31T03:10:46;14.56;72.23
63202;DHT22;49296;48.188;11.566;2022-10-31T03:13:17;14.59;71.95
63202;DHT22;49296;48.188;11.566;2022-10-31T03:15:48;14.60;71.85
63202;DHT22;49296;48.188;11.566;2022-10-31T03:18:18;14.65;71.78
63202;DHT22;49296;48.188;11.566;2022-10-31T03:20:49;14.62;71.73
63202;DHT22;49296;48.188;11.566;2022-10-31T03:23:17;14.65;71.60
63202;DHT22;49296;48.188;11.566;2022-10-31T03:25:44;14.66;71.55
63202;DHT22;49296;48.188;11.566;2022-10-31T03:28:11;14.66;71.64
63202;DHT22;49296;48.188;11.566;2022-10-31T03:30:40;14.65;71.69
63202;DHT22;49296;48.188;11.566;2022-10-31T03:33:08;14.65;71.79
63202;DHT22;49296;48.188;11.566;2022-10-31T03:35:38;14.57;71.89
63202;DHT22;49296;48.188;11.566;2022-10-31T03:38:07;14.56;71.76
63202;DHT22;49296;48.188;11.566;2022-10-31T03:40:34;14.53;71.78
63202;DHT22;49296;48.188;11.566;2022-10-31T03:43:03;14.55;71.70
63202;DHT22;49296;48.188;11.566;2022-10-31T03:45:32;14.56;71.77
63202;DHT22;49296;48.188;11.566;2022-10-31T03:47:59;14.49;71.77
63202;DHT22;49296;48.188;11.566;2022-10-31T03:50:27;14.49;71.77
63202;DHT22;49296;48.188;11.566;2022-10-31T03:52:57;14.46;71.94
63202;DHT22;49296;48.188;11.566;2022-10-31T03:55:28;14.49;71.50
63202;DHT22;49296;48.188;11.566;2022-10-31T03:57:57;14.50;71.54
63202;DHT22;49296;48.188;11.566;2022-10-31T04:00:25;14.43;71.67
63202;DHT22;49296;48.188;11.566;2022-10-31T04:02:53;14.45;71.50
63202;DHT22;49296;48.188;11.566;2022-10-31T04:05:21;14.43;71.52
63202;DHT22;49296;48.188;11.566;2022-10-31T04:07:50;14.43;71.67
63202;DHT22;49296;48.188;11.566;2022-10-31T04:10:19;14.40;71.64
63202;DHT22;49296;48.188;11.566;2022-10-31T04:12:48;14.40;71.57
63202;DHT22;49296;48.188;11.566;2022-10-31T04:15:16;14.33;71.66
63202;DHT22;49296;48.188;11.566;2022-10-31T04:17:42;14.39;71.34
63202;DHT22;49296;48.188;11.566;2022-10-31T04:20:10;14.38;71.23
63202;DHT22;49296;48.188;11.566;2022-10-31T04:22:37;14.42;71.08
63202;DHT22;49296;48.188;11.566;2022-10-31T04:25:04;14.31;71.24
63202;DHT22;49296;48.188;11.566;2022-10-31T04:27:32;14.28;71.10
63202;DHT22;49296;48.188;11.566;2022-10-31T04:29:58;14.18;71.09
63202;DHT22;49296;48.188;11.566;2022-10-31T04:32:25;14.22;70.92
63202;DHT22;49296;48.188;11.566;2022-10-31T04:34:52;14.18;70.96
63202;DHT22;49296;48.188;11.566;2022-10-31T04:37:19;14.13;71.20
63202;DHT22;49296;48.188;11.566;2022-10-31T04:39:45;14.08;71.59
63202;DHT22;49296;48.188;11.566;2022-10-31T04:42:12;14.05;71.67
63202;DHT22;49296;48.188;11.566;2022-10-31T04:44:39;14.00;71.81
63202;DHT22;49296;48.188;11.566;2022-10-31T04:47:06;14.04;71.83
63202;DHT22;49296;48.188;11.566;2022-10-31T04:49:33;14.00;72.00
63202;DHT22;49296;48.188;11.566;2022-10-31T04:51:59;13.94;72.04
63202;DHT22;49296;48.188;11.566;2022-10-31T04:54:26;13.93;72.08
63202;DHT22;49296;48.188;11.566;2022-10-31T04:56:52;13.90;72.03
63202;DHT22;49296;48.188;11.566;2022-10-31T04:59:19;13.88;71.90
63202;DHT22;49296;48.188;11.566;2022-10-31T05:01:47;13.83;72.10
63202;DHT22;49296;48.188;11.566;2022-10-31T05:04:13;13.90;71.90
63202;DHT22;49296;48.188;11.566;2022-10-31T05:06:40;13.87;71.81
63202;DHT22;49296;48.188;11.566;2022-10-31T05:09:06;13.88;71.91
63202;DHT22;49296;48.188;11.566;2022-10-31T05:11:33;13.91;71.91
63202;DHT22;49296;48.188;11.566;2022-10-31T05:14:00;13.88;72.09
63202;DHT22;49296;48.188;11.566;2022-10-31T05:16:26;13.83;72.18
63202;DHT22;49296;48.188;11.566;2022-10-31T05:18:55;13.86;72.33
63202;DHT22;49296;48.188;11.566;2022-10-31T05:21:22;13.83;72.29
63202;DHT22;49296;48.188;11.566;2022-10-31T05:23:48;13.83;72.24
63202;DHT22;49296;48.188;11.566;2022-10-31T05:26:15;13.80;72.37
63202;DHT22;49296;48.188;11.566;2022-10-31T05:28:41;13.79;72.44
63202;DHT22;49296;48.188;11.566;2022-10-31T05:31:08;13.77;72.51
63202;DHT22;49296;48.188;11.566;2022-10-31T05:33:35;13.77;72.48
63202;DHT22;49296;48.188;11.566;2022-10-31T05:36:03;13.76;72.55
63202;DHT22;49296;48.188;11.566;2022-10-31T05:38:29;13.76;72.65
63202;DHT22;49296;48.188;11.566;2022-10-31T05:40:56;13.73;72.86
63202;DHT22;49296;48.188;11.566;2022-10-31T05:43:25;13.70;72.74
63202;DHT22;49296;48.188;11.566;2022-10-31T05:45:51;13.70;72.77
63202;DHT22;49296;48.188;11.566;2022-10-31T05:48:18;13.76;72.61
63202;DHT22;49296;48.188;11.566;2022-10-31T05:50:45;13.76;72.50
63202;DHT22;49296;48.188;11.566;2022-10-31T05:53:14;13.74;72.56
63202;DHT22;49296;48.188;11.566;2022-10-31T05:55:41;13.69;72.71
63202;DHT22;49296;48.188;11.566;2022-10-31T05:58:08;13.69;72.71
63202;DHT22;49296;48.188;11.566;2022-10-31T06:00:35;13.70;72.79
63202;DHT22;49296;48.188;11.566;2022-10-31T06:03:02;13.69;72.74
63202;DHT22;49296;48.188;11.566;2022-10-31T06:05:29;13.70;72.59
63202;DHT22;49296;48.188;11.566;2022-10-31T06:07:56;13.67;72.64
63202;DHT22;49296;48.188;11.566;2022-10-31T06:10:24;13.67;72.70
63202;DHT22;49296;48.188;11.566;2022-10-31T06:12:51;13.67;72.86
63202;DHT22;49296;48.188;11.566;2022-10-31T06:15:18;13.71;72.63
63202;DHT22;49296;48.188;11.566;2022-10-31T06:17:44;13.70;72.53
63202;DHT22;49296;48.188;11.566;2022-10-31T06:20:11;13.76;72.54
63202;DHT22;49296;48.188;11.566;2022-10-31T06:22:37;13.80;72.39
63202;DHT22;49296;48.188;11.566;2022-10-31T06:25:04;13.81;72.19
63202;DHT22;49296;48.188;11.566;2022-10-31T06:27:32;13.83;72.08
63202;DHT22;49296;48.188;11.566;2022-10-31T06:29:59;13.86;72.03
63202;DHT22;49296;48.188;11.566;2022-10-31T06:32:25;13.79;72.16
63202;DHT22;49296;48.188;11.566;2022-10-31T06:34:52;13.81;72.16
63202;DHT22;49296;48.188;11.566;2022-10-31T06:37:24;13.90;71.92
63202;DHT22;49296;48.188;11.566;2022-10-31T06:39:51;13.90;72.18
63202;DHT22;49296;48.188;11.566;2022-10-31T06:42:17;13.88;72.05
63202;DHT22;49296;48.188;11.566;2022-10-31T06:44:45;13.88;72.10
63202;DHT22;49296;48.188;11.566;2022-10-31T06:47:12;13.91;72.05
63202;DHT22;49296;48.188;11.566;2022-10-31T06:49:39;13.96;71.94
63202;DHT22;49296;48.188;11.566;2022-10-31T06:52:05;14.00;71.81
63202;DHT22;49296;48.188;11.566;2022-10-31T06:54:32;14.03;71.66
63202;DHT22;49296;48.188;11.566;2022-10-31T06:56:58;14.04;71.78
63202;DHT22;49296;48.188;11.566;2022-10-31T06:59:25;14.07;71.63
63202;DHT22;49296;48.188;11.566;2022-10-31T07:01:53;14.05;71.77
63202;DHT22;49296;48.188;11.566;2022-10-31T07:04:20;14.10;71.67
63202;DHT22;49296;48.188;11.566;2022-10-31T07:06:50;14.14;71.60
63202;DHT22;49296;48.188;11.566;2022-10-31T07:09:16;14.15;71.65
63202;DHT22;49296;48.188;11.566;2022-10-31T07:11:43;14.15;71.72
63202;DHT22;49296;48.188;11.566;2022-10-31T07:14:09;14.17;71.67
63202;DHT22;49296;48.188;11.566;2022-10-31T07:16:36;14.18;71.75
63202;DHT22;49296;48.188;11.566;2022-10-31T07:19:04;14.21;71.70
63202;DHT22;49296;48.188;11.566;2022-10-31T07:21:30;14.25;71.56
63202;DHT22;49296;48.188;11.566;2022-10-31T07:23:57;14.29;71.64
63202;DHT22;49296;48.188;11.566;2022-10-31T07:26:24;14.33;71.71
63202;DHT22;49296;48.188;11.566;2022-10-31T07:28:51;14.35;71.74
63202;DHT22;49296;48.188;11.566;2022-10-31T07:31:17;14.40;71.68
63202;DHT22;49296;48.188;11.566;2022-10-31T07:33:44;14.46;71.74
63202;DHT22;49296;48.188;11.566;2022-10-31T07:36:12;14.45;71.72
63202;DHT22;49296;48.188;11.566;2022-10-31T07:38:38;14.52;71.44
63202;DHT22;49296;48.188;11.566;2022-10-31T07:41:05;14.59;71.40
63202;DHT22;49296;48.188;11.566;2022-10-31T07:43:31;14.56;71.48
63202;DHT22;49296;48.188;11.566;2022-10-31T07:45:58;14.56;71.44
63202;DHT22;49296;48.188;11.566;2022-10-31T07:48:25;14.63;71.32
63202;DHT22;49296;48.188;11.566;2022-10-31T07:50:51;14.65;71.39
63202;DHT22;49296;48.188;11.566;2022-10-31T07:53:19;14.69;71.48
63202;DHT22;49296;48.188;11.566;2022-10-31T07:55:46;14.74;71.28
63202;DHT22;49296;48.188;11.566;2022-10-31T07:58:13;14.77;71.43
63202;DHT22;49296;48.188;11.566;2022-10-31T08:00:40;14.84;71.35
63202;DHT22;49296;48.188;11.566;2022-10-31T08:03:07;14.91;71.37
63202;DHT22;49296;48.188;11.566;2022-10-31T08:05:34;14.91;71.44
63202;DHT22;49296;48.188;11.566;2022-10-31T08:08:01;14.97;71.48
63202;DHT22;49296;48.188;11.566;2022-10-31T08:10:29;15.01;71.66
63202;DHT22;49296;48.188;11.566;2022-10-31T08:12:56;15.04;71.71
63202;DHT22;49296;48.188;11.566;2022-10-31T08:15:23;15.14;71.86
63202;DHT22;49296;48.188;11.566;2022-10-31T08:17:50;15.19;72.07
63202;DHT22;49296;48.188;11.566;2022-10-31T08:20:17;15.24;72.90
63202;DHT22;49296;48.188;11.566;2022-10-31T08:22:51;15.22;72.92
63202;DHT22;49296;48.188;11.566;2022-10-31T08:25:18;15.28;73.29
63202;DHT22;49296;48.188;11.566;2022-10-31T08:27:49;15.35;73.34
63202;DHT22;49296;48.188;11.566;2022-10-31T08:30:15;15.39;73.41
63202;DHT22;49296;48.188;11.566;2022-10-31T08:32:42;15.43;73.26
63202;DHT22;49296;48.188;11.566;2022-10-31T08:35:09;15.35;73.50
63202;DHT22;49296;48.188;11.566;2022-10-31T08:37:35;15.29;73.96
63202;DHT22;49296;48.188;11.566;2022-10-31T08:40:02;15.42;73.29
63202;DHT22;49296;48.188;11.566;2022-10-31T08:42:28;15.43;73.19
63202;DHT22;49296;48.188;11.566;2022-10-31T08:44:56;15.56;73.15
63202;DHT22;49296;48.188;11.566;2022-10-31T08:47:23;15.55;73.80
63202;DHT22;49296;48.188;11.566;2022-10-31T08:49:49;15.59;73.86
63202;DHT22;49296;48.188;11.566;2022-10-31T08:52:16;15.63;73.70
63202;DHT22;49296;48.188;11.566;2022-10-31T08:54:42;15.69;73.51
63202;DHT22;49296;48.188;11.566;2022-10-31T08:57:09;15.73;73.33
63202;DHT22;49296;48.188;11.566;2022-10-31T08:59:36;15.69;73.26
63202;DHT22;49296;48.188;11.566;2022-10-31T09:02:04;15.77;72.97
63202;DHT22;49296;48.188;11.566;2022-10-31T09:04:30;15.74;72.43
63202;DHT22;49296;48.188;11.566;2022-10-31T09:06:57;15.76;72.26
63202;DHT22;49296;48.188;11.566;2022-10-31T09:09:23;15.81;71.94
63202;DHT22;49296;48.188;11.566;2022-10-31T09:11:50;15.88;71.44
63202;DHT22;49296;48.188;11.566;2022-10-31T09:14:17;15.91;71.35
63202;DHT22;49296;48.188;11.566;2022-10-31T09:16:43;15.96;71.35
63202;DHT22;49296;48.188;11.566;2022-10-31T09:19:11;15.97;71.29
63202;DHT22;49296;48.188;11.566;2022-10-31T09:21:38;16.02;70.96
63202;DHT22;49296;48.188;11.566;2022-10-31T09:24:05;16.09;70.67
63202;DHT22;49296;48.188;11.566;2022-10-31T09:26:32;16.14;70.56
63202;DHT22;49296;48.188;11.566;2022-10-31T09:28:59;16.16;70.67
63202;DHT22;49296;48.188;11.566;2022-10-31T09:31:27;16.22;70.46
63202;DHT22;49296;48.188;11.566;2022-10-31T09:33:53;16.26;70.16
63202;DHT22;49296;48.188;11.566;2022-10-31T09:36:21;16.28;69.78
63202;DHT22;49296;48.188;11.566;2022-10-31T09:38:48;16.33;69.40
63202;DHT22;49296;48.188;11.566;2022-10-31T09:41:16;16.39;69.21
63202;DHT22;49296;48.188;11.566;2022-10-31T09:43:48;16.52;68.92
63202;DHT22;49296;48.188;11.566;2022-10-31T09:46:17;16.55;68.65
63202;DHT22;49296;48.188;11.566;2022-10-31T09:48:50;16.59;68.40
63202;DHT22;49296;48.188;11.566;2022-10-31T09:51:19;16.53;68.58
63202;DHT22;49296;48.188;11.566;2022-10-31T09:53:49;16.55;68.36
63202;DHT22;49296;48.188;11.566;2022-10-31T09:56:17;16.64;67.66
63202;DHT22;49296;48.188;11.566;2022-10-31T09:58:44;16.69;67.15
63202;DHT22;49296;48.188;11.566;2022-10-31T10:01:17;16.64;66.79
63202;DHT22;49296;48.188;11.566;2022-10-31T10:03:46;16.67;66.61
63202;DHT22;49296;48.188;11.566;2022-10-31T10:06:17;16.73;66.06
63202;DHT22;49296;48.188;11.566;2022-10-31T10:08:44;16.87;65.70
63202;DHT22;49296;48.188;11.566;2022-10-31T10:11:20;16.88;65.81
63202;DHT22;49296;48.188;11.566;2022-10-31T10:14:02;16.97;65.46
63202;DHT22;49296;48.188;11.566;2022-10-31T10:16:38;17.05;65.09
63202;DHT22;49296;48.188;11.566;2022-10-31T10:19:11;17.10;64.82
63202;DHT22;49296;48.188;11.566;2022-10-31T10:21:42;17.14;64.45
63202;DHT22;49296;48.188;11.566;2022-10-31T10:24:17;17.19;64.47
63202;DHT22;49296;48.188;11.566;2022-10-31T10:26:49;17.28;64.32
63202;DHT22;49296;48.188;11.566;2022-10-31T10:29:23;17.32;64.19
63202;DHT22;49296;48.188;11.566;2022-10-31T10:31:51;17.32;64.02
63202;DHT22;49296;48.188;11.566;2022-10-31T10:34:20;17.39;63.73
63202;DHT22;49296;48.188;11.566;2022-10-31T10:36:50;17.38;63.71
63202;DHT22;49296;48.188;11.566;2022-10-31T10:39:18;17.40;63.34
63202;DHT22;49296;48.188;11.566;2022-10-31T10:41:49;17.46;63.38
63202;DHT22;49296;48.188;11.566;2022-10-31T10:44:29;17.53;63.14
63202;DHT22;49296;48.188;11.566;2022-10-31T10:47:13;17.62;63.41
63202;DHT22;49296;48.188;11.566;2022-10-31T10:49:57;17.69;63.23
63202;DHT22;49296;48.188;11.566;2022-10-31T10:52:27;17.78;63.16
63202;DHT22;49296;48.188;11.566;2022-10-31T10:54:58;17.83;62.96
63202;DHT22;49296;48.188;11.566;2022-10-31T10:57:29;17.81;63.09
63202;DHT22;49296;48.188;11.566;2022-10-31T10:59:57;17.85;63.44
63202;DHT22;49296;48.188;11.566;2022-10-31T11:02:25;17.85;63.74
63202;DHT22;49296;48.188;11.566;2022-10-31T11:04:53;17.90;63.92
63202;DHT22;49296;48.188;11.566;2022-10-31T11:07:20;17.91;64.31
63202;DHT22;49296;48.188;11.566;2022-10-31T11:09:46;17.97;63.84
63202;DHT22;49296;48.188;11.566;2022-10-31T11:12:17;18.00;63.60
63202;DHT22;49296;48.188;11.566;2022-10-31T11:14:48;18.06;63.15
63202;DHT22;49296;48.188;11.566;2022-10-31T11:17:20;18.16;63.15
63202;DHT22;49296;48.188;11.566;2022-10-31T11:19:58;18.16;63.22
63202;DHT22;49296;48.188;11.566;2022-10-31T11:22:25;18.21;62.87
63202;DHT22;49296;48.188;11.566;2022-10-31T11:24:52;18.26;62.95
63202;DHT22;49296;48.188;11.566;2022-10-31T11:27:20;18.33;62.85
63202;DHT22;49296;48.188;11.566;2022-10-31T11:29:48;18.35;62.43
63202;DHT22;49296;48.188;11.566;2022-10-31T11:32:16;18.42;62.13
63202;DHT22;49296;48.188;11.566;2022-10-31T11:34:44;18.39;62.12
63202;DHT22;49296;48.188;11.566;2022-10-31T11:37:12;18.40;63.45
63202;DHT22;49296;48.188;11.566;2022-10-31T11:39:40;18.46;62.00
63202;DHT22;49296;48.188;11.566;2022-10-31T11:42:07;18.60;62.02
63202;DHT22;49296;48.188;11.566;2022-10-31T11:44:34;18.64;61.93
63202;DHT22;49296;48.188;11.566;2022-10-31T11:47:02;18.67;60.60
63202;DHT22;49296;48.188;11.566;2022-10-31T11:49:30;18.71;60.07
63202;DHT22;49296;48.188;11.566;2022-10-31T11:51:59;18.67;58.75
63202;DHT22;49296;48.188;11.566;2022-10-31T11:54:27;18.81;57.85
63202;DHT22;49296;48.188;11.566;2022-10-31T11:56:54;18.80;57.61
63202;DHT22;49296;48.188;11.566;2022-10-31T11:59:23;18.88;56.63
63202;DHT22;49296;48.188;11.566;2022-10-31T12:01:51;18.89;56.39
63202;DHT22;49296;48.188;11.566;2022-10-31T12:04:20;18.94;57.28
63202;DHT22;49296;48.188;11.566;2022-10-31T12:06:49;18.98;57.84
63202;DHT22;49296;48.188;11.566;2022-10-31T12:09:20;18.92;58.00
63202;DHT22;49296;48.188;11.566;2022-10-31T12:11:52;18.97;58.58
63202;DHT22;49296;48.188;11.566;2022-10-31T12:14:25;18.97;57.86
63202;DHT22;49296;48.188;11.566;2022-10-31T12:16:55;18.95;57.89
63202;DHT22;49296;48.188;11.566;2022-10-31T12:19:27;18.97;57.58
63202;DHT22;49296;48.188;11.566;2022-10-31T12:21:59;18.97;57.20
63202;DHT22;49296;48.188;11.566;2022-10-31T12:24:33;18.95;57.08
63202;DHT22;49296;48.188;11.566;2022-10-31T12:27:05;18.87;57.32
63202;DHT22;49296;48.188;11.566;2022-10-31T12:29:47;18.84;57.33
63202;DHT22;49296;48.188;11.566;2022-10-31T12:32:20;18.89;57.99
63202;DHT22;49296;48.188;11.566;2022-10-31T12:34:55;18.81;58.07
63202;DHT22;49296;48.188;11.566;2022-10-31T12:37:33;18.88;58.10
63202;DHT22;49296;48.188;11.566;2022-10-31T12:40:05;18.89;58.10
63202;DHT22;49296;48.188;11.566;2022-10-31T12:42:38;18.87;58.33
63202;DHT22;49296;48.188;11.566;2022-10-31T12:45:10;18.87;58.22
63202;DHT22;49296;48.188;11.566;2022-10-31T12:47:53;18.95;58.02
63202;DHT22;49296;48.188;11.566;2022-10-31T12:50:28;18.98;58.16
63202;DHT22;49296;48.188;11.566;2022-10-31T12:53:00;18.99;58.20
63202;DHT22;49296;48.188;11.566;2022-10-31T12:55:31;19.04;58.06
63202;DHT22;49296;48.188;11.566;2022-10-31T12:58:01;19.09;58.21
63202;DHT22;49296;48.188;11.566;2022-10-31T13:00:29;19.11;58.06
63202;DHT22;49296;48.188;11.566;2022-10-31T13:02:58;19.11;58.38
63202;DHT22;49296;48.188;11.566;2022-10-31T13:05:29;19.18;58.55
63202;DHT22;49296;48.188;11.566;2022-10-31T13:07:57;19.33;58.17
63202;DHT22;49296;48.188;11.566;2022-10-31T13:10:25;19.50;58.11
63202;DHT22;49296;48.188;11.566;2022-10-31T13:12:53;19.45;58.17
63202;DHT22;49296;48.188;11.566;2022-10-31T13:15:22;19.43;58.36
63202;DHT22;49296;48.188;11.566;2022-10-31T13:17:50;19.37;58.37
63202;DHT22;49296;48.188;11.566;2022-10-31T13:20:19;19.34;58.58
63202;DHT22;49296;48.188;11.566;2022-10-31T13:22:49;19.34;58.49
63202;DHT22;49296;48.188;11.566;2022-10-31T13:25:18;19.26;58.37
63202;DHT22;49296;48.188;11.566;2022-10-31T13:27:47;19.18;58.78
63202;DHT22;49296;48.188;11.566;2022-10-31T13:30:16;19.22;58.67
63202;DHT22;49296;48.188;11.566;2022-10-31T13:32:44;19.20;58.91
63202;DHT22;49296;48.188;11.566;2022-10-31T13:35:14;19.20;59.44
63202;DHT22;49296;48.188;11.566;2022-10-31T13:37:41;19.18;59.79
63202;DHT22;49296;48.188;11.566;2022-10-31T13:40:14;19.22;60.18
63202;DHT22;49296;48.188;11.566;2022-10-31T13:42:46;19.15;60.79
63202;DHT22;49296;48.188;11.566;2022-10-31T13:45:16;19.12;61.61
63202;DHT22;49296;48.188;11.566;2022-10-31T13:47:54;19.20;61.72
63202;DHT22;49296;48.188;11.566;2022-10-31T13:50:21;19.11;62.27
63202;DHT22;49296;48.188;11.566;2022-10-31T13:52:48;19.23;62.11
63202;DHT22;49296;48.188;11.566;2022-10-31T13:58:03;19.26;62.01
63202;DHT22;49296;48.188;11.566;2022-10-31T14:00:29;19.22;62.29
63202;DHT22;49296;48.188;11.566;2022-10-31T14:02:59;19.22;62.39
63202;DHT22;49296;48.188;11.566;2022-10-31T14:05:27;19.18;62.51
63202;DHT22;49296;48.188;11.566;2022-10-31T14:07:55;19.09;62.65
63202;DHT22;49296;48.188;11.566;2022-10-31T14:10:24;19.02;63.21
63202;DHT22;49296;48.188;11.566;2022-10-31T14:12:52;19.11;62.91
63202;DHT22;49296;48.188;11.566;2022-10-31T14:15:22;19.22;62.75
63202;DHT22;49296;48.188;11.566;2022-10-31T14:17:50;19.26;62.97
63202;DHT22;49296;48.188;11.566;2022-10-31T14:20:22;19.23;63.34
63202;DHT22;49296;48.188;11.566;2022-10-31T14:22:50;19.29;63.40
63202;DHT22;49296;48.188;11.566;2022-10-31T14:25:29;19.29;63.52
63202;DHT22;49296;48.188;11.566;2022-10-31T14:27:57;19.23;64.22
63202;DHT22;49296;48.188;11.566;2022-10-31T14:30:25;19.18;64.69
63202;DHT22;49296;48.188;11.566;2022-10-31T14:32:53;19.18;64.69
63202;DHT22;49296;48.188;11.566;2022-10-31T14:35:21;19.19;65.09
63202;DHT22;49296;48.188;11.566;2022-10-31T14:38:03;19.20;65.38
63202;DHT22;49296;48.188;11.566;2022-10-31T14:40:34;19.18;66.20
63202;DHT22;49296;48.188;11.566;2022-10-31T14:43:12;19.16;66.41
63202;DHT22;49296;48.188;11.566;2022-10-31T14:45:46;19.16;66.58
63202;DHT22;49296;48.188;11.566;2022-10-31T14:48:24;19.12;66.87
63202;DHT22;49296;48.188;11.566;2022-10-31T14:50:54;19.05;67.28
63202;DHT22;49296;48.188;11.566;2022-10-31T14:53:22;19.05;67.54
63202;DHT22;49296;48.188;11.566;2022-10-31T14:55:50;19.01;67.97
63202;DHT22;49296;48.188;11.566;2022-10-31T14:58:18;18.87;68.97
63202;DHT22;49296;48.188;11.566;2022-10-31T15:00:47;18.89;69.09
63202;DHT22;49296;48.188;11.566;2022-10-31T15:03:16;18.91;69.18
63202;DHT22;49296;48.188;11.566;2022-10-31T15:05:46;18.88;69.27
63202;DHT22;49296;48.188;11.566;2022-10-31T15:08:14;18.88;69.49
63202;DHT22;49296;48.188;11.566;2022-10-31T15:10:51;18.87;69.59
63202;DHT22;49296;48.188;11.566;2022-10-31T15:13:18;18.84;70.02
63202;DHT22;49296;48.188;11.566;2022-10-31T15:15:48;18.83;70.29
63202;DHT22;49296;48.188;11.566;2022-10-31T15:18:16;18.80;70.41
63202;DHT22;49296;48.188;11.566;2022-10-31T15:20:43;18.74;70.84
63202;DHT22;49296;48.188;11.566;2022-10-31T15:23:11;18.75;70.91
63202;DHT22;49296;48.188;11.566;2022-10-31T15:25:40;18.70;71.30